< < Back
Terminal Aerodrome Forecast


Current Version              Previous Versions:   1  2  3  4  5  6  7  8  9  

Terminal Aerodrome Forecast

498
FTUS42 KMLB 222300
TAFDAB
TAF
KDAB 222324Z 2300/2324 12004KT P6SM VCSH FEW007 SCT015 BKN090
     FM230400 VRB03KT P6SM FEW030 SCT120 BKN250
     FM231400 VRB02KT P6SM FEW005 BKN100 BKN250
     FM232000 13006KT P6SM VCTS FEW025 SCT040CB BKN150=



Latest METAR

876
SAUS80 KWBC 230400
MTRDAB
METAR KDAB 230353Z 00000KT 10SM BKN120 OVC250 22/21 A3000 RMK AO2 SLP159
T02220211


USA.gov is the U.S. government's official web portal to all federal, state and local government web resources and services.